Time;durP1;ratioP1;P1;durP2;ratioP2;P2;SDS_P1;SDS_P2;PMS_P1;PMS_P2;Temp;Humidity;BMP_temperature;BMP_pressure;BME280_temperature;BME280_humidity;BME280_pressure;Samples;Min_cycle;Max_cycle;Signal;HPM_P1;HPM_P2
2021/11/14 00:00:54;;;;;;;36.25;17.85;;;;;;;8.87;100.00;98763.59;5004456;28;20022;-87
2021/11/14 00:03:21;;;;;;;43.15;18.70;;;;;;;8.87;100.00;98771.47;5004406;28;20077;-87
2021/11/14 00:05:47;;;;;;;39.28;18.73;;;;;;;8.89;100.00;98761.81;5012126;28;20080;-87
2021/11/14 00:08:15;;;;;;;38.97;18.20;;;;;;;8.91;100.00;98767.91;5003744;28;20081;-87
2021/11/14 00:10:45;;;;;;;35.25;18.38;;;;;;;8.89;100.00;98764.44;5003907;28;20025;-87
2021/11/14 00:13:12;;;;;;;46.45;19.67;;;;;;;8.82;100.00;98757.53;5004096;28;20031;-87
2021/11/14 00:15:38;;;;;;;35.17;19.45;;;;;;;8.78;100.00;98757.56;5003820;28;20018;-87
2021/11/14 00:18:04;;;;;;;35.70;17.30;;;;;;;8.89;100.00;98764.44;5005361;28;20073;-87
2021/11/14 00:20:30;;;;;;;35.40;17.30;;;;;;;8.92;100.00;98759.16;5003516;28;20030;-87
2021/11/14 00:22:55;;;;;;;56.38;19.77;;;;;;;8.87;100.00;98750.47;4993498;28;20029;-87
2021/11/14 00:25:21;;;;;;;37.00;17.95;;;;;;;8.92;100.00;98764.41;5003636;28;20025;-86
2021/11/14 00:27:48;;;;;;;40.83;17.92;;;;;;;8.91;100.00;98763.53;5004530;28;20018;-86
2021/11/14 00:30:14;;;;;;;34.92;16.83;;;;;;;8.89;100.00;98753.94;5005963;28;20025;-86
2021/11/14 00:32:39;;;;;;;42.55;18.17;;;;;;;8.88;100.00;98754.81;4997438;28;20057;-86
2021/11/14 00:35:07;;;;;;;38.42;17.17;;;;;;;8.89;100.00;98757.41;5004344;28;20218;-86
2021/11/14 00:37:35;;;;;;;39.25;19.10;;;;;;;8.86;100.00;98743.47;5004490;28;20325;-86
2021/11/14 00:40:08;;;;;;;35.47;16.73;;;;;;;8.90;100.00;98751.31;5004692;28;20022;-86
2021/11/14 00:42:34;;;;;;;42.40;18.35;;;;;;;8.84;100.00;98751.38;5004239;28;20024;-87
2021/11/14 00:45:00;;;;;;;36.92;17.27;;;;;;;8.82;100.00;98742.63;5004331;28;20024;-87
2021/11/14 00:47:25;;;;;;;41.53;17.60;;;;;;;8.83;100.00;98753.13;5005391;28;20072;-87
2021/11/14 00:49:51;;;;;;;48.97;17.65;;;;;;;8.86;100.00;98753.97;5005466;28;20210;-87
2021/11/14 00:52:16;;;;;;;34.35;16.65;;;;;;;8.90;100.00;98755.69;5005540;28;20380;-87
2021/11/14 00:54:42;;;;;;;35.72;17.60;;;;;;;8.90;100.00;98745.19;5004278;28;20084;-87
2021/11/14 00:57:07;;;;;;;58.28;19.60;;;;;;;8.88;100.00;98746.94;4999287;28;20026;-87
2021/11/14 00:59:33;;;;;;;52.88;19.17;;;;;;;8.90;100.00;98746.06;5004041;28;20030;-87
2021/11/14 01:01:58;;;;;;;40.55;18.88;;;;;;;8.89;100.00;98751.31;5003837;28;20087;-87
2021/11/14 01:04:24;;;;;;;43.53;17.77;;;;;;;8.90;100.00;98750.44;5003712;28;20318;-87
2021/11/14 01:06:49;;;;;;;42.72;19.88;;;;;;;8.88;100.00;98741.69;5003866;28;20226;-87
2021/11/14 01:09:14;;;;;;;48.30;20.85;;;;;;;8.87;100.00;98745.22;5003881;28;20042;-87
2021/11/14 01:11:40;;;;;;;54.60;20.67;;;;;;;8.88;100.00;98749.56;5004974;28;20054;-87
2021/11/14 01:14:05;;;;;;;60.40;21.67;;;;;;;8.87;100.00;98745.22;5003987;28;20068;-87
2021/11/14 01:16:31;;;;;;;44.33;19.73;;;;;;;8.91;100.00;98750.41;5003800;28;20026;-87
2021/11/14 01:18:56;;;;;;;51.33;19.98;;;;;;;8.85;100.00;98752.25;5003257;28;20018;-87
2021/11/14 01:21:24;;;;;;;50.65;21.52;;;;;;;8.88;100.00;98749.56;5003559;28;20022;-87
2021/11/14 01:23:50;;;;;;;61.67;21.98;;;;;;;8.89;100.00;98751.31;5003493;28;20033;-87
2021/11/14 01:26:16;;;;;;;45.95;20.90;;;;;;;8.86;100.00;98748.72;5003527;28;20085;-87
2021/11/14 01:28:42;;;;;;;53.85;20.60;;;;;;;8.83;100.00;98754.91;5001803;28;20018;-87
2021/11/14 01:31:08;;;;;;;45.72;19.15;;;;;;;8.87;100.00;98760.97;5003263;28;20014;-87
2021/11/14 01:33:33;;;;;;;41.95;18.90;;;;;;;8.87;100.00;98753.97;5003506;28;20379;-87
2021/11/14 01:35:59;;;;;;;44.92;19.00;;;;;;;8.91;100.00;98754.78;5003493;28;20018;-87
2021/11/14 01:38:27;;;;;;;43.55;20.02;;;;;;;8.92;100.00;98756.53;5003343;28;20030;-87
2021/11/14 01:40:58;;;;;;;43.58;18.80;;;;;;;8.86;100.00;98760.06;5003286;28;20029;-87
2021/11/14 01:43:30;;;;;;;46.80;20.20;;;;;;;8.90;100.00;98760.94;5003254;28;20049;-87
2021/11/14 01:45:57;;;;;;;44.45;20.38;;;;;;;8.92;100.00;98764.41;5003246;28;20018;-87
2021/11/14 01:48:22;;;;;;;46.63;21.17;;;;;;;8.89;100.00;98759.19;5004865;28;20068;-87
2021/11/14 01:50:49;;;;;;;44.05;20.50;;;;;;;8.82;100.00;98766.25;5004001;28;20018;-87
2021/11/14 01:53:16;;;;;;;48.35;20.45;;;;;;;8.80;100.00;98766.28;5003958;28;20026;-87
2021/11/14 01:55:46;;;;;;;48.67;20.77;;;;;;;8.82;100.00;98765.41;5003692;28;20033;-87
2021/11/14 01:58:15;;;;;;;43.22;19.88;;;;;;;8.85;100.00;98768.00;5003535;28;20018;-87
2021/11/14 02:00:51;;;;;;;47.33;20.23;;;;;;;8.89;100.00;98767.06;5003082;28;20022;-87
2021/11/14 02:03:18;;;;;;;42.42;19.42;;;;;;;8.89;100.00;98767.06;5004091;28;20340;-87
2021/11/14 02:05:43;;;;;;;43.50;17.85;;;;;;;8.91;100.00;98763.53;5002832;28;20034;-87
2021/11/14 02:08:11;;;;;;;37.47;17.75;;;;;;;8.93;100.00;98767.03;5002903;28;20360;-87
2021/11/14 02:10:38;;;;;;;34.35;15.55;;;;;;;8.93;100.00;98766.16;5002787;28;20018;-87
2021/11/14 02:13:05;;;;;;;47.75;19.50;;;;;;;8.93;100.00;98768.78;5002930;28;20018;-87
2021/11/14 02:15:30;;;;;;;42.80;18.92;;;;;;;8.90;100.00;98771.44;5003115;28;20031;-87
2021/11/14 02:17:56;;;;;;;38.22;16.80;;;;;;;8.88;100.00;98770.56;5002897;28;20018;-87
2021/11/14 02:20:22;;;;;;;39.45;17.80;;;;;;;8.90;100.00;98768.81;5003134;28;20054;-87
2021/11/14 02:22:49;;;;;;;37.63;17.00;;;;;;;8.87;100.00;98760.97;5004038;28;20314;-87
2021/11/14 02:25:17;;;;;;;35.72;16.40;;;;;;;8.91;100.00;98765.28;5003205;28;20027;-87
2021/11/14 02:27:45;;;;;;;37.42;17.45;;;;;;;8.94;100.00;98762.63;5003257;28;20026;-87
2021/11/14 02:30:12;;;;;;;45.42;19.00;;;;;;;8.89;100.00;98765.28;5005222;28;20018;-87
2021/11/14 02:32:38;;;;;;;36.85;16.33;;;;;;;8.91;100.00;98767.91;5007208;28;20030;-87
2021/11/14 02:35:05;;;;;;;37.55;18.10;;;;;;;8.90;100.00;98767.06;5007189;28;20317;-87
2021/11/14 02:37:30;;;;;;;43.42;17.10;;;;;;;8.94;100.00;98779.25;5007485;28;20029;-87
2021/11/14 02:39:56;;;;;;;40.10;17.85;;;;;;;8.95;100.00;98775.72;5007048;28;20022;-87
2021/11/14 02:42:22;;;;;;;34.90;17.38;;;;;;;8.96;100.00;98768.75;5006710;28;20333;-87
2021/11/14 02:44:47;;;;;;;39.13;17.60;;;;;;;8.97;100.00;98778.34;5007554;28;20022;-87
2021/11/14 02:47:13;;;;;;;48.38;17.00;;;;;;;8.96;100.00;98776.63;5006717;28;20029;-87
2021/11/14 02:49:38;;;;;;;51.22;19.55;;;;;;;8.99;100.00;98771.34;5007457;28;20018;-87
2021/11/14 02:52:05;;;;;;;44.50;17.15;;;;;;;8.99;100.00;98777.47;5006269;28;20022;-87
2021/11/14 02:54:31;;;;;;;40.08;16.65;;;;;;;9.00;100.00;98780.94;5006222;28;20026;-87
2021/11/14 02:56:56;;;;;;;76.47;19.98;;;;;;;8.90;100.00;98774.06;5006360;28;20092;-87
2021/11/14 02:59:22;;;;;;;46.45;17.10;;;;;;;8.94;100.00;98774.00;5006245;28;20097;-87
2021/11/14 03:01:53;;;;;;;85.78;18.67;;;;;;;8.95;100.00;98772.25;5006062;28;20479;-87
2021/11/14 03:04:23;;;;;;;48.55;19.25;;;;;;;8.91;100.00;98767.91;5006265;28;20045;-87
2021/11/14 03:06:50;;;;;;;67.10;18.08;;;;;;;8.93;100.00;98774.03;5006921;28;20069;-87
2021/11/14 03:09:17;;;;;;;85.03;18.33;;;;;;;8.95;100.00;98777.50;5005425;28;20020;-87
2021/11/14 03:11:42;;;;;;;111.47;18.67;;;;;;;8.89;100.00;98769.69;5004716;28;20018;-87
2021/11/14 03:14:08;;;;;;;52.92;17.95;;;;;;;8.89;100.00;98769.69;5005128;28;20037;-87
2021/11/14 03:16:34;;;;;;;43.55;16.42;;;;;;;8.93;100.00;98774.03;5004644;28;20374;-87
2021/11/14 03:19:00;;;;;;;133.73;17.67;;;;;;;8.88;100.00;98773.19;5004557;28;20018;-87
2021/11/14 03:21:27;;;;;;;40.88;17.85;;;;;;;8.91;100.00;98770.53;5004796;28;20022;-87
2021/11/14 03:23:54;;;;;;;41.00;17.08;;;;;;;8.96;100.00;98776.63;5004566;28;20026;-87
2021/11/14 03:26:20;;;;;;;69.43;16.98;;;;;;;8.87;100.00;98766.22;5004646;28;20041;-87
2021/11/14 03:28:46;;;;;;;58.20;17.95;;;;;;;8.88;100.00;98770.56;5004919;28;20125;-87
2021/11/14 03:31:12;;;;;;;46.40;15.90;;;;;;;8.88;100.00;98767.94;5004650;28;20310;-87
2021/11/14 03:33:38;;;;;;;49.95;15.23;;;;;;;8.87;100.00;98774.09;5004861;28;20041;-87
2021/11/14 03:36:10;;;;;;;47.20;16.65;;;;;;;8.87;100.00;98781.97;5004838;28;20205;-87
2021/11/14 03:38:40;;;;;;;57.85;15.00;;;;;;;8.87;100.00;98781.97;5004425;28;20392;-86
2021/11/14 03:41:07;;;;;;;81.25;15.93;;;;;;;8.82;100.00;98775.00;5003817;28;20030;-86
2021/11/14 03:43:34;;;;;;;72.43;15.35;;;;;;;8.88;100.00;98783.69;5004206;28;20221;-87
2021/11/14 03:45:59;;;;;;;29.83;14.18;;;;;;;8.89;100.00;98782.81;5004283;28;20026;-87
2021/11/14 03:48:25;;;;;;;47.58;14.13;;;;;;;8.91;100.00;98789.78;5004354;28;20018;-87
2021/11/14 03:50:52;;;;;;;70.70;15.30;;;;;;;8.92;100.00;98785.41;5004091;28;20014;-87
2021/11/14 03:53:18;;;;;;;31.48;15.52;;;;;;;8.96;100.00;98792.38;5004345;28;20044;-87
2021/11/14 03:55:44;;;;;;;51.60;15.45;;;;;;;8.92;100.00;98795.91;5004281;28;20337;-87
2021/11/14 03:58:10;;;;;;;28.63;14.50;;;;;;;8.94;100.00;98794.13;5004077;28;20028;-87
2021/11/14 04:00:40;;;;;;;27.70;13.15;;;;;;;8.96;100.00;98800.25;5004129;28;20385;-87
2021/11/14 04:03:06;;;;;;;26.88;13.40;;;;;;;8.97;100.00;98805.47;5004117;28;20018;-87
2021/11/14 04:05:32;;;;;;;27.90;12.93;;;;;;;8.98;100.00;98794.06;5005359;28;20106;-87
2021/11/14 04:07:58;;;;;;;29.15;13.55;;;;;;;8.98;100.00;98796.69;4966617;28;1191029;-87
2021/11/14 04:10:25;;;;;;;25.55;13.35;;;;;;;8.96;100.00;98797.63;5005113;28;20214;-87
2021/11/14 04:12:50;;;;;;;31.42;13.07;;;;;;;8.93;100.00;98798.53;5004803;28;20022;-87
2021/11/14 04:15:17;;;;;;;25.65;12.85;;;;;;;8.94;100.00;98802.00;5005044;28;20052;-87
2021/11/14 04:17:43;;;;;;;28.90;13.60;;;;;;;8.91;100.00;98796.78;5004731;28;20019;-87
2021/11/14 04:20:11;;;;;;;28.80;13.43;;;;;;;8.91;100.00;98805.53;5004824;28;20218;-87
2021/11/14 04:22:39;;;;;;;22.75;11.65;;;;;;;8.95;100.00;98801.97;5004670;28;20022;-87
2021/11/14 04:25:06;;;;;;;23.88;13.10;;;;;;;8.97;100.00;98801.97;5004762;28;20102;-87
2021/11/14 04:27:32;;;;;;;25.50;11.93;;;;;;;8.92;100.00;98806.41;5004769;28;20060;-87
2021/11/14 04:29:57;;;;;;;24.73;13.43;;;;;;;8.89;100.00;98801.19;5004791;28;20285;-87
2021/11/14 04:32:23;;;;;;;26.00;12.32;;;;;;;8.89;100.00;98801.19;5004647;28;20102;-87
2021/11/14 04:34:48;;;;;;;25.02;12.23;;;;;;;8.92;100.00;98806.41;5004384;28;20132;-87
2021/11/14 04:37:14;;;;;;;22.33;11.15;;;;;;;8.91;100.00;98802.03;5004402;28;20030;-87
2021/11/14 04:39:39;;;;;;;20.55;10.32;;;;;;;8.92;100.00;98806.41;5004466;28;20318;-87
2021/11/14 04:42:07;;;;;;;21.92;11.35;;;;;;;8.87;100.00;98803.84;5004374;28;20042;-87
2021/11/14 04:44:33;;;;;;;17.42;10.02;;;;;;;8.91;100.00;98809.91;5004399;28;20021;-87
2021/11/14 04:46:59;;;;;;;19.60;10.23;;;;;;;8.97;100.00;98822.97;5004081;28;20060;-87
2021/11/14 04:49:24;;;;;;;22.52;10.52;;;;;;;8.96;100.00;98816.88;5004133;28;20093;-87
2021/11/14 04:51:51;;;;;;;20.95;10.90;;;;;;;8.97;100.00;98812.47;5003209;28;20018;-87
2021/11/14 04:54:18;;;;;;;20.70;10.35;;;;;;;8.96;100.00;98808.13;5003545;28;20022;-87
2021/11/14 04:56:45;;;;;;;22.70;10.70;;;;;;;8.90;100.00;98813.41;5004397;28;20060;-87
2021/11/14 04:59:11;;;;;;;20.65;11.15;;;;;;;8.89;100.00;98806.44;5004346;28;20030;-87
2021/11/14 05:01:37;;;;;;;18.30;9.88;;;;;;;8.94;100.00;98805.50;5004083;28;20025;-87
2021/11/14 05:04:03;;;;;;;17.83;9.02;;;;;;;8.96;100.00;98816.88;5004276;28;20022;-87
2021/11/14 05:06:28;;;;;;;19.58;10.15;;;;;;;8.95;100.00;98812.50;5003430;28;20114;-87
2021/11/14 05:08:54;;;;;;;15.48;8.52;;;;;;;8.94;100.00;98810.75;5003797;28;20049;-87
2021/11/14 05:11:19;;;;;;;17.70;9.25;;;;;;;8.94;100.00;98810.75;5004144;28;20010;-87
2021/11/14 05:13:45;;;;;;;15.05;8.25;;;;;;;8.92;100.00;98824.78;5003928;28;20317;-87
2021/11/14 05:16:10;;;;;;;17.35;8.35;;;;;;;8.95;100.00;98816.88;5003915;28;20018;-87
2021/11/14 05:18:36;;;;;;;18.00;9.45;;;;;;;8.91;100.00;98815.16;5004099;28;20051;-87
2021/11/14 05:21:02;;;;;;;13.45;7.88;;;;;;;8.96;100.00;98823.88;5004739;28;20022;-87
2021/11/14 05:23:27;;;;;;;15.15;8.10;;;;;;;8.91;100.00;98825.66;5003468;28;20217;-87
2021/11/14 05:25:53;;;;;;;14.48;7.90;;;;;;;8.89;100.00;98827.44;5004683;28;20025;-87
2021/11/14 05:28:19;;;;;;;14.23;7.80;;;;;;;8.87;100.00;98829.19;5003669;28;20314;-87
2021/11/14 05:30:44;;;;;;;13.10;7.30;;;;;;;8.85;100.00;98836.25;5003482;28;20356;-87
2021/11/14 05:33:10;;;;;;;14.30;7.13;;;;;;;8.88;100.00;98830.94;5003755;28;20018;-87
2021/11/14 05:35:35;;;;;;;12.35;7.07;;;;;;;8.89;100.00;98837.94;5003279;28;20018;-87
2021/11/14 05:38:01;;;;;;;15.93;7.68;;;;;;;8.85;100.00;98836.25;5003361;28;20018;-87
2021/11/14 05:40:27;;;;;;;17.45;7.70;;;;;;;8.93;100.00;98844.91;5003177;28;20018;-87
2021/11/14 05:42:52;;;;;;;14.65;7.85;;;;;;;8.88;100.00;98841.44;5003261;28;20014;-87
2021/11/14 05:45:18;;;;;;;14.20;7.80;;;;;;;8.88;100.00;98846.69;5003275;28;20025;-87
2021/11/14 05:47:43;;;;;;;20.08;8.18;;;;;;;8.88;100.00;98851.94;5003175;28;20014;-87
2021/11/14 05:50:10;;;;;;;18.23;8.00;;;;;;;8.90;100.00;98850.16;5004657;28;20047;-87
2021/11/14 05:52:36;;;;;;;13.57;7.35;;;;;;;8.86;100.00;98848.47;5003583;28;20213;-87
2021/11/14 05:55:04;;;;;;;16.17;8.15;;;;;;;8.87;100.00;98855.44;5003147;28;20038;-87
2021/11/14 05:57:34;;;;;;;15.30;6.88;;;;;;;8.87;100.00;98850.19;5002969;28;20022;-87
2021/11/14 06:00:07;;;;;;;16.90;7.68;;;;;;;8.87;100.00;98860.69;5002950;28;20022;-87
2021/11/14 06:02:46;;;;;;;13.52;7.32;;;;;;;8.86;100.00;98857.19;5003139;28;20022;-87
2021/11/14 06:05:16;;;;;;;14.48;7.25;;;;;;;8.85;100.00;98858.09;5002744;28;20038;-87
2021/11/14 06:07:43;;;;;;;13.05;7.18;;;;;;;8.85;100.00;98867.72;5002866;28;20078;-87
2021/11/14 06:10:10;;;;;;;11.40;6.30;;;;;;;8.77;100.00;98863.41;5003045;28;20310;-87
2021/11/14 06:12:37;;;;;;;11.57;5.45;;;;;;;8.85;100.00;98867.72;5002801;28;20022;-87
2021/11/14 06:15:09;;;;;;;11.35;6.03;;;;;;;8.87;100.00;98876.44;5002940;28;20050;-87
2021/11/14 06:17:34;;;;;;;10.57;6.00;;;;;;;8.90;100.00;98885.19;5002899;28;20018;-87
2021/11/14 06:20:00;;;;;;;10.98;5.82;;;;;;;8.91;100.00;98886.03;5002869;28;20340;-87
2021/11/14 06:22:25;;;;;;;11.60;6.57;;;;;;;8.90;100.00;98886.91;5002630;28;20018;-87
2021/11/14 06:24:51;;;;;;;9.88;5.90;;;;;;;8.87;100.00;98882.56;5001795;28;20044;-87
2021/11/14 06:27:16;;;;;;;11.32;6.25;;;;;;;8.87;100.00;98897.44;5001862;28;20025;-87
2021/11/14 06:29:42;;;;;;;10.80;6.40;;;;;;;8.80;100.00;98889.63;5002206;28;20021;-87
2021/11/14 06:32:08;;;;;;;12.20;5.75;;;;;;;8.82;100.00;98889.59;5001782;28;20089;-87
2021/11/14 06:34:33;;;;;;;8.23;5.28;;;;;;;8.89;100.00;98901.78;5001704;28;20030;-87
2021/11/14 06:36:59;;;;;;;12.05;6.25;;;;;;;8.91;100.00;98899.16;5001438;28;20386;-87
2021/11/14 06:39:24;;;;;;;10.45;6.03;;;;;;;8.89;100.00;98900.94;5001622;28;20030;-87
2021/11/14 06:41:50;;;;;;;9.77;5.53;;;;;;;8.85;100.00;98910.56;5002937;28;20310;-87
2021/11/14 06:44:15;;;;;;;9.38;5.35;;;;;;;8.85;100.00;98914.97;5001651;28;20327;-87
2021/11/14 06:46:41;;;;;;;8.52;4.68;;;;;;;8.86;100.00;98917.56;5001644;28;20022;-87
2021/11/14 06:49:06;;;;;;;9.73;4.75;;;;;;;8.87;100.00;98921.06;5001763;28;20018;-90
2021/11/14 06:51:32;;;;;;;9.93;5.22;;;;;;;8.87;100.00;98923.69;5002097;28;20022;-87
2021/11/14 06:53:58;;;;;;;7.93;4.30;;;;;;;8.88;100.00;98946.41;5001577;28;20226;-87
2021/11/14 06:56:24;;;;;;;7.60;3.97;;;;;;;8.86;100.00;98948.22;5001946;28;20031;-87
2021/11/14 06:58:50;;;;;;;6.97;4.00;;;;;;;8.92;100.00;98948.16;5001756;28;20014;-87
2021/11/14 07:01:16;;;;;;;8.20;4.78;;;;;;;8.97;100.00;98952.47;5001203;28;20018;-87
2021/11/14 07:03:41;;;;;;;7.28;3.45;;;;;;;8.90;100.00;98950.81;5001170;28;20085;-87
2021/11/14 07:06:07;;;;;;;8.32;3.65;;;;;;;8.96;100.00;98965.63;5001384;28;20141;-87
2021/11/14 07:08:33;;;;;;;6.07;3.95;;;;;;;8.94;100.00;98962.13;5001213;28;20037;-87
2021/11/14 07:10:59;;;;;;;6.43;4.10;;;;;;;8.91;100.00;98959.53;5001470;28;20098;-87
2021/11/14 07:13:24;;;;;;;14.50;4.43;;;;;;;8.87;100.00;98968.31;5002648;28;20137;-87
2021/11/14 07:15:49;;;;;;;7.90;4.10;;;;;;;8.90;100.00;98968.28;5002495;28;20073;-87
2021/11/14 07:18:15;;;;;;;6.63;4.18;;;;;;;8.89;100.00;98963.94;5005303;28;20030;-87
2021/11/14 07:20:40;;;;;;;6.57;4.13;;;;;;;8.96;100.00;98971.75;5005469;28;20022;-87
2021/11/14 07:23:06;;;;;;;7.13;3.50;;;;;;;8.95;100.00;98974.38;5005110;28;20253;-87
2021/11/14 07:25:32;;;;;;;6.32;3.65;;;;;;;8.99;100.00;98981.34;5005927;28;20037;-87
2021/11/14 07:27:58;;;;;;;5.88;3.63;;;;;;;9.10;100.00;98985.63;5005690;28;20014;-87
2021/11/14 07:30:25;;;;;;;8.35;3.88;;;;;;;9.10;100.00;98984.75;5005094;28;20018;-87
2021/11/14 07:32:52;;;;;;;9.02;4.78;;;;;;;9.02;100.00;98987.47;5005049;28;20024;-87
2021/11/14 07:35:19;;;;;;;7.45;3.63;;;;;;;9.04;100.00;98990.03;5005956;28;20018;-87
2021/11/14 07:37:45;;;;;;;10.68;6.32;;;;;;;9.03;100.00;98998.81;5004245;28;20033;-87
2021/11/14 07:40:12;;;;;;;18.13;11.50;;;;;;;9.05;100.00;99000.53;5002873;28;20018;-87
2021/11/14 07:42:39;;;;;;;12.15;6.30;;;;;;;9.05;100.00;98995.28;5004230;28;20081;-87
2021/11/14 07:45:07;;;;;;;14.93;6.28;;;;;;;9.03;100.00;99004.06;5004461;28;20053;-87
2021/11/14 07:47:34;;;;;;;10.02;5.50;;;;;;;9.04;100.00;98990.94;5007039;28;20089;-87
2021/11/14 07:50:00;;;;;;;12.23;7.03;;;;;;;9.03;100.00;98998.81;5004573;28;20018;-86
2021/11/14 07:52:26;;;;;;;28.27;13.30;;;;;;;9.17;100.00;99007.47;5004390;28;20286;-87
2021/11/14 07:54:52;;;;;;;32.65;16.20;;;;;;;9.15;100.00;98997.00;5003981;28;20048;-87
2021/11/14 07:57:18;;;;;;;20.00;10.27;;;;;;;9.16;100.00;98995.22;5004484;28;20097;-87
2021/11/14 07:59:43;;;;;;;12.48;7.03;;;;;;;9.20;100.00;99002.19;5004132;28;20372;-87
2021/11/14 08:02:09;;;;;;;6.70;3.53;;;;;;;9.09;100.00;99004.03;5004396;28;20042;-87
2021/11/14 08:04:35;;;;;;;8.25;5.13;;;;;;;9.09;100.00;99004.03;5004412;28;20018;-87
2021/11/14 08:07:00;;;;;;;3.13;2.35;;;;;;;9.07;100.00;99005.78;5003850;28;20070;-87
2021/11/14 08:09:26;;;;;;;3.72;1.80;;;;;;;9.17;100.00;99002.22;5004096;28;20022;-86
2021/11/14 08:11:51;;;;;;;3.08;2.05;;;;;;;9.07;100.00;99011.03;5004165;28;20097;-86
2021/11/14 08:14:17;;;;;;;2.92;1.90;;;;;;;9.10;100.00;99003.13;5004003;28;20014;-86
2021/11/14 08:16:42;;;;;;;3.50;2.45;;;;;;;9.13;100.00;99011.88;5004296;28;20022;-86
2021/11/14 08:19:08;;;;;;;6.75;3.67;;;;;;;9.13;100.00;99003.09;5003975;28;20065;-86
2021/11/14 08:21:33;;;;;;;4.07;2.47;;;;;;;9.21;100.00;99009.19;5004511;28;20025;-86
2021/11/14 08:23:59;;;;;;;4.82;2.67;;;;;;;9.34;100.00;99011.72;5003998;28;20029;-86
2021/11/14 08:26:24;;;;;;;6.70;2.97;;;;;;;9.35;100.00;99013.44;5003409;28;20026;-86
2021/11/14 08:28:50;;;;;;;7.35;3.53;;;;;;;9.30;100.00;99014.38;5003241;28;20022;-86
2021/11/14 08:31:20;;;;;;;3.10;1.90;;;;;;;9.37;100.00;99022.19;5003813;28;20093;-86
2021/11/14 08:33:49;;;;;;;3.83;2.30;;;;;;;9.43;100.00;99016.00;5004977;28;20383;-86
2021/11/14 08:36:15;;;;;;;4.22;2.10;;;;;;;9.35;100.00;99023.06;5005269;28;20026;-86
2021/11/14 08:38:42;;;;;;;7.40;2.75;;;;;;;9.33;100.00;99020.44;5004100;28;20026;-86
2021/11/14 08:41:08;;;;;;;3.70;2.42;;;;;;;9.39;100.00;99020.41;5003992;28;20029;-86
2021/11/14 08:43:36;;;;;;;3.20;2.30;;;;;;;9.51;100.00;99024.69;5003519;28;20026;-86
2021/11/14 08:46:04;;;;;;;5.25;2.53;;;;;;;9.42;100.00;99024.75;5004217;28;20237;-87
2021/11/14 08:48:30;;;;;;;7.05;3.70;;;;;;;9.53;100.00;99038.69;5003306;28;20024;-87
2021/11/14 08:50:56;;;;;;;3.78;2.63;;;;;;;9.42;100.00;99035.25;5003384;28;20218;-87
2021/11/14 08:53:22;;;;;;;4.10;2.47;;;;;;;9.38;100.00;99038.81;5004314;28;20021;-87
2021/11/14 08:55:47;;;;;;;4.20;2.47;;;;;;;9.49;100.00;99052.75;5003978;28;20333;-87
2021/11/14 08:58:13;;;;;;;4.28;2.40;;;;;;;9.50;100.00;99049.22;5003751;28;20023;-87
2021/11/14 09:00:38;;;;;;;3.67;2.67;;;;;;;9.53;100.00;99055.34;5003463;28;20022;-87
2021/11/14 09:03:05;;;;;;;4.45;2.78;;;;;;;9.58;100.00;99047.38;5003593;28;20036;-88
2021/11/14 09:05:32;;;;;;;3.67;2.45;;;;;;;9.65;100.00;99049.09;5004350;28;20336;-88
2021/11/14 09:08:00;;;;;;;3.42;2.20;;;;;;;9.62;100.00;99054.38;5003154;28;20054;-87
2021/11/14 09:10:27;;;;;;;4.32;2.20;;;;;;;9.68;100.00;99055.19;5003078;28;20026;-87
2021/11/14 09:12:53;;;;;;;6.45;2.63;;;;;;;9.78;100.00;99064.72;5002625;28;20022;-87
2021/11/14 09:15:21;;;;;;;4.70;2.50;;;;;;;9.78;100.00;99063.88;5003188;28;20276;-87
2021/11/14 09:17:46;;;;;;;3.83;2.53;;;;;;;9.55;99.78;99068.47;5004453;28;20029;-86
2021/11/14 09:20:12;;;;;;;4.60;3.00;;;;;;;9.66;100.00;99071.84;5004054;28;20030;-86
2021/11/14 09:22:38;;;;;;;5.80;2.90;;;;;;;9.80;100.00;99075.22;5002709;28;20040;-89
2021/11/14 09:25:06;;;;;;;4.15;2.55;;;;;;;9.69;100.00;99082.34;5002632;28;20034;-87
2021/11/14 09:27:32;;;;;;;5.65;3.35;;;;;;;9.63;100.00;99087.66;5002505;28;20116;-87
2021/11/14 09:29:57;;;;;;;5.88;3.50;;;;;;;9.68;100.00;99077.97;5002900;28;20018;-87
2021/11/14 09:32:23;;;;;;;5.63;3.65;;;;;;;9.70;100.00;99081.44;5002613;28;20026;-87
2021/11/14 09:34:48;;;;;;;7.82;4.07;;;;;;;9.54;100.00;99092.97;5002538;28;20032;-87
2021/11/14 09:37:14;;;;;;;6.80;4.00;;;;;;;9.74;100.00;99096.28;5002421;28;20249;-87
2021/11/14 09:39:39;;;;;;;6.13;4.05;;;;;;;9.72;100.00;99092.81;5001758;28;20375;-87
2021/11/14 09:42:06;;;;;;;8.38;5.10;;;;;;;9.71;100.00;99101.59;5002286;28;20041;-86
2021/11/14 09:44:31;;;;;;;10.00;6.47;;;;;;;9.93;100.00;99103.13;5003053;28;20022;-87
2021/11/14 09:46:59;;;;;;;12.57;7.38;;;;;;;9.85;100.00;99103.22;5002945;28;20084;-87
2021/11/14 09:49:27;;;;;;;14.60;8.80;;;;;;;9.98;99.77;99090.81;5002635;28;20056;-87
2021/11/14 09:51:55;;;;;;;15.32;9.52;;;;;;;10.18;99.17;99115.19;5009574;28;20018;-87
2021/11/14 09:54:23;;;;;;;18.58;11.10;;;;;;;10.21;98.88;99109.91;5003031;28;20068;-87
2021/11/14 09:56:49;;;;;;;17.40;10.70;;;;;;;10.35;98.61;99115.91;5001838;28;20085;-87
2021/11/14 09:59:15;;;;;;;20.25;10.98;;;;;;;10.26;98.44;99100.22;5001934;28;20022;-87
2021/11/14 10:01:41;;;;;;;19.02;11.15;;;;;;;10.29;97.89;99102.81;5003416;28;20022;-87
2021/11/14 10:04:08;;;;;;;21.58;11.60;;;;;;;10.18;98.56;99100.28;5003692;28;20022;-87
2021/11/14 10:06:35;;;;;;;21.95;13.63;;;;;;;10.27;98.58;99104.59;5001544;28;20346;-86
2021/11/14 10:09:00;;;;;;;21.33;12.52;;;;;;;10.41;97.67;99102.69;5002218;28;20048;-85
2021/11/14 10:11:36;;;;;;;24.17;14.10;;;;;;;10.37;98.07;99106.22;5001928;28;20018;-86
2021/11/14 10:14:02;;;;;;;24.92;14.07;;;;;;;10.16;98.75;99094.16;5002082;28;20034;-87
2021/11/14 10:16:29;;;;;;;25.67;13.18;;;;;;;10.20;98.71;99097.66;5001881;28;20231;-86
2021/11/14 10:19:13;;;;;;;22.70;14.10;;;;;;;10.44;97.98;99094.75;5001792;28;20022;-87
2021/11/14 10:21:40;;;;;;;28.65;14.55;;;;;;;10.57;97.45;99099.00;4998000;28;20237;-87
2021/11/14 10:24:08;;;;;;;21.45;14.07;;;;;;;10.59;97.01;99097.19;4983015;28;20019;-87
2021/11/14 10:26:35;;;;;;;21.83;13.05;;;;;;;10.82;96.17;99087.22;5002271;28;20026;-87
2021/11/14 10:29:11;;;;;;;21.60;12.80;;;;;;;10.74;95.40;99091.75;5001541;28;20040;-87
2021/11/14 10:31:39;;;;;;;22.38;13.63;;;;;;;10.69;95.48;99080.38;5001676;28;20206;-87
2021/11/14 10:34:06;;;;;;;22.60;13.20;;;;;;;10.74;95.39;99086.47;5001765;28;20018;-87
2021/11/14 10:36:32;;;;;;;21.48;11.73;;;;;;;10.70;94.99;99087.41;5002018;28;20026;-87
2021/11/14 10:39:08;;;;;;;19.60;11.75;;;;;;;10.82;94.88;99079.34;5002667;28;20026;-87
2021/11/14 10:41:33;;;;;;;21.60;12.57;;;;;;;10.81;94.30;99083.75;5002093;28;20026;-87
2021/11/14 10:44:14;;;;;;;19.10;11.27;;;;;;;10.86;94.25;99086.31;5001430;28;20217;-87
2021/11/14 10:46:41;;;;;;;20.60;11.18;;;;;;;10.64;95.21;99074.31;4997147;28;20029;-87
2021/11/14 10:49:08;;;;;;;17.20;10.98;;;;;;;10.67;95.21;99071.66;5001621;28;20022;-87
2021/11/14 10:51:34;;;;;;;18.30;11.18;;;;;;;10.70;94.47;99079.53;5004568;28;20018;-87
2021/11/14 10:54:01;;;;;;;18.25;11.00;;;;;;;10.70;93.74;99079.53;5005479;28;20030;-87
2021/11/14 10:56:26;;;;;;;18.27;11.00;;;;;;;10.56;94.41;99076.16;5005795;28;20034;-87
2021/11/14 10:58:53;;;;;;;18.52;10.98;;;;;;;10.75;94.08;99078.56;5005214;28;20023;-87
2021/11/14 11:01:18;;;;;;;20.30;11.82;;;;;;;10.72;95.20;99082.97;5005320;28;20022;-87
2021/11/14 11:03:50;;;;;;;16.27;10.23;;;;;;;10.64;94.62;99079.59;5005204;28;20025;-87
2021/11/14 11:06:29;;;;;;;15.77;9.05;;;;;;;10.80;93.61;99087.25;5005072;28;20014;-87
2021/11/14 11:08:59;;;;;;;18.70;11.05;;;;;;;10.66;94.50;99085.69;5005455;28;20245;-87
2021/11/14 11:11:26;;;;;;;13.23;7.95;;;;;;;10.80;93.19;99089.88;5004711;28;20021;-87
2021/11/14 11:13:53;;;;;;;13.10;8.57;;;;;;;10.88;92.51;99084.53;4991222;28;20196;-87
2021/11/14 11:16:22;;;;;;;13.13;7.15;;;;;;;10.80;91.57;99086.41;5004943;28;20014;-87
2021/11/14 11:18:56;;;;;;;12.30;7.72;;;;;;;10.74;92.65;99081.22;5005113;28;20093;-87